Latest Weather Observations for Emerald

IDQ60801

Issued at 2:02 pm EST Saturday 20 December 2014 (issued every 30 minutes, with the page automatically refreshed every 10 minutes)

About weather observations | Map of weather stations | Latest weather observations for QLD | Other Formats
Station Details ID: 035264 Name: EMERALD AIRPORT Lat: -23.57 Lon: 148.18 Height: 189.4 m
Data from the previous 72 hours. | See also: Recent months at Emerald
Date/Time
EST
Temp
°C
App
Temp
°C
Dew
Point
Rel
Hum
%
Delta-T
°C
Wind Press
QNH
hPa
Press
MSL
hPa
Rain
since 9 am
mm
Dir
 
Spd
km/h
Gust
km/h
Spd
kts
Gust
kts
20/02:00pm 33.3 30.6 12.9 29 12.3 ENE 19 26 10 14 1011.5 - 0.0
20/01:30pm 32.7 32.5 14.8 34 11.1 NE 9 28 5 15 1012.0 - 0.0
20/01:00pm 32.5 33.5 16.8 39 10.0 E 7 19 4 10 1012.4 - 0.0
20/12:30pm 31.8 32.0 15.7 37 10.1 E 9 17 5 9 1012.8 - 0.0
20/12:00pm 31.5 32.1 18.5 46 8.5 NE 13 19 7 10 1013.2 1012.0 0.0
20/11:30am 31.2 30.4 17.9 45 8.6 NNE 19 24 10 13 1013.5 - 0.0
20/11:00am 30.3 32.1 19.6 52 7.1 E 9 17 5 9 1014.2 - 0.0
20/10:30am 29.9 32.4 20.2 56 6.4 N 7 15 4 8 1014.5 - 0.0
20/10:00am 29.1 31.6 20.3 59 5.8 SSE 7 11 4 6 1014.6 - 0.0
20/09:30am 28.5 31.6 20.2 60 5.5 NNE 4 11 2 6 1014.6 - 0.0
20/09:00am 27.4 31.0 20.5 66 4.6 N 2 9 1 5 1014.8 1013.5 0.0
20/08:30am 27.2 30.4 20.5 67 4.4 ESE 4 9 2 5 1014.6 - 0.0
20/08:00am 25.9 28.8 20.7 73 3.4 NE 6 9 3 5 1014.6 - 0.0
20/07:30am 24.8 27.8 21.3 81 2.3 NNE 7 11 4 6 1014.5 - 0.0
20/07:00am 24.7 29.1 21.4 82 2.2 CALM 0 0 0 0 1014.2 - 0.0
20/06:30am 23.2 27.6 21.3 89 1.3 CALM 0 0 0 0 1013.8 - 0.0
20/06:00am 23.1 27.9 22.1 94 0.7 CALM 0 0 0 0 1013.1 1011.9 0.0
20/05:30am 21.6 25.2 21.3 98 0.2 SSW 4 7 2 4 1012.8 - 0.0
20/05:00am 21.4 24.3 21.1 98 0.2 SSW 7 9 4 5 1012.4 - 0.0
20/04:30am 21.5 24.7 21.2 98 0.2 SSW 6 9 3 5 1012.1 - 0.0
20/04:00am 21.6 26.0 21.3 98 0.2 CALM 0 0 0 0 1011.9 - 0.0
20/03:30am 21.9 26.3 21.4 97 0.3 CALM 0 0 0 0 1011.8 - 0.0
20/03:00am 22.5 26.6 21.5 94 0.7 NW 2 6 1 3 1011.6 1010.4 0.0
20/02:30am 22.4 26.8 21.4 94 0.7 CALM 0 0 0 0 1011.7 - 0.0
20/02:00am 22.8 26.8 21.3 91 1.0 NNW 2 6 1 3 1011.8 - 0.0
20/01:30am 23.2 26.4 21.3 89 1.3 NW 6 7 3 4 1011.9 - 0.0
20/01:00am 23.3 26.6 21.4 89 1.3 NNW 6 7 3 4 1012.1 - 0.0
20/12:30am 23.3 26.8 21.9 92 0.9 NNE 6 7 3 4 1012.5 - 0.0
20/12:00am 23.2 26.6 21.6 91 1.1 NNE 6 6 3 3 1012.9 1011.7 0.0
 
Date/Time
EST
Temp
°C
App
Temp
°C
Dew
Point
Rel
Hum
%
Delta-T
°C
Wind Press
QNH
hPa
Press
MSL
hPa
Rain
since 9 am
mm
Dir
 
Spd
km/h
Gust
km/h
Spd
kts
Gust
kts
19/11:30pm 23.4 27.0 22.4 94 0.7 NE 7 9 4 5 1013.5 - 0.0
19/11:00pm 24.0 28.4 22.1 89 1.3 N 2 6 1 3 1013.9 - 0.0
19/10:30pm 23.9 27.5 22.3 91 1.1 NE 7 9 4 5 1014.0 - 0.0
19/10:00pm 24.0 27.5 22.1 89 1.3 NE 7 9 4 5 1013.9 - 0.0
19/09:30pm 24.6 28.1 22.1 86 1.7 NNE 7 9 4 5 1013.6 - 0.0
19/09:00pm 25.6 29.0 21.7 79 2.6 N 6 9 3 5 1013.2 1012.0 0.0
19/08:30pm 25.9 29.0 21.1 75 3.2 NNE 6 7 3 4 1012.9 - 0.0
19/08:00pm 27.1 29.7 20.4 66 4.4 NW 7 9 4 5 1012.6 - 0.0
19/07:30pm 27.3 30.1 20.4 66 4.6 NNW 6 7 3 4 1012.3 - 0.0
19/07:00pm 27.4 29.9 21.0 68 4.3 N 9 15 5 8 1012.1 - 0.0
19/06:30pm 28.2 29.7 20.5 63 5.1 N 13 15 7 8 1012.0 - 0.0
19/06:00pm 28.9 30.4 19.8 58 6.0 ENE 11 17 6 9 1011.6 1010.4 0.0
19/05:30pm 29.3 31.4 19.3 55 6.5 NE 7 13 4 7 1011.5 - 0.0
19/05:00pm 29.4 30.9 18.8 53 6.9 SE 9 11 5 6 1011.3 - 0.0
19/04:30pm 29.7 31.7 19.1 53 6.9 SW 7 13 4 7 1011.3 - 0.0
19/04:00pm 29.3 31.5 19.3 55 6.5 ESE 6 17 3 9 1011.4 - 0.0
19/03:30pm 29.1 31.5 19.7 57 6.2 SW 6 9 3 5 1011.6 - 0.0
19/03:00pm 28.5 30.1 19.1 56 6.1 SSE 9 13 5 7 1011.9 1010.7 0.0
19/02:30pm 28.3 30.7 20.1 61 5.4 SSE 7 13 4 7 1012.3 - 0.0
19/02:00pm 28.0 29.8 20.3 63 5.1 W 11 15 6 8 1012.7 - 0.0
19/01:30pm 27.2 29.6 20.0 64 4.7 NNE 7 20 4 11 1013.0 - 0.0
19/01:00pm 26.8 29.3 20.2 67 4.3 WSW 7 13 4 7 1013.4 - 0.0
19/12:30pm 26.6 29.4 20.4 69 4.1 W 6 13 3 7 1013.9 - 0.0
19/12:00pm 25.6 28.8 20.4 73 3.4 SW 4 9 2 5 1014.4 1013.1 0.0
19/11:30am 24.4 26.9 20.3 78 2.7 SE 7 13 4 7 1014.6 - 0.0
19/11:00am 23.6 25.8 20.5 83 2.0 SSW 9 17 5 9 1014.9 - 0.0
19/10:30am 23.2 25.0 20.3 84 1.9 SSE 11 15 6 8 1014.6 - 0.0
19/10:00am 22.6 24.7 20.1 86 1.6 SE 9 13 5 7 1014.5 - 0.0
19/09:41am 22.5 23.7 20.0 86 1.6 S 13 17 7 9 1014.7 - 0.0
19/09:30am 22.5 23.8 20.2 87 1.5 SSE 13 17 7 9 1014.8 - 0.0
19/09:00am 22.4 23.4 20.3 88 1.4 SSE 15 20 8 11 1014.6 1013.3 21.0
19/08:30am 22.5 23.7 20.6 89 1.2 SE 15 20 8 11 1014.7 - 21.0
19/08:00am 22.2 23.4 20.7 91 1.0 SSE 15 19 8 10 1014.5 - 21.0
19/07:31am 21.6 22.7 20.4 93 0.8 SSE 15 20 8 11 1014.3 - 21.0
19/07:30am 21.6 22.7 20.4 93 0.8 SSE 15 20 8 11 1014.3 - 21.0
19/07:00am 21.4 22.6 20.6 95 0.5 S 15 20 8 11 1013.9 - 21.0
19/06:30am 21.2 22.0 20.7 97 0.3 S 17 24 9 13 1013.3 - 21.0
19/06:00am 21.1 22.3 20.6 97 0.3 SSE 15 20 8 11 1012.5 1011.3 21.0
19/05:30am 21.0 22.2 20.7 98 0.2 SSE 15 20 8 11 1012.2 - 21.0
19/05:00am 20.8 21.8 20.3 97 0.3 SSE 15 19 8 10 1011.9 - 21.0
19/04:56am 20.8 21.8 20.3 97 0.3 SSE 15 19 8 10 1011.9 - 21.0
19/04:42am 20.7 21.7 20.2 97 0.3 S 15 19 8 10 1011.8 - 21.0
19/04:41am 20.7 21.7 20.2 97 0.3 S 15 20 8 11 1011.8 - 21.0
19/04:30am 20.7 21.3 20.2 97 0.3 S 17 20 9 11 1011.9 - 21.0
19/04:05am 20.8 21.8 20.3 97 0.3 S 15 20 8 11 1011.7 - 21.0
19/04:00am 20.9 22.0 20.4 97 0.3 S 15 19 8 10 1011.7 - 21.0
19/03:30am 21.1 23.4 20.6 97 0.3 SE 9 13 5 7 1011.5 - 21.0
19/03:00am 20.9 22.3 20.4 97 0.3 SE 13 17 7 9 1011.4 1010.2 21.0
19/02:30am 21.1 22.6 20.6 97 0.3 SE 13 17 7 9 1011.8 - 21.0
19/02:00am 21.1 23.1 20.8 98 0.2 SE 11 15 6 8 1012.1 - 21.0
19/01:50am 21.0 23.0 20.7 98 0.2 E 11 17 6 9 1012.2 - 21.0
19/01:30am 20.8 23.0 20.5 98 0.2 ESE 9 15 5 8 1012.7 - 21.0
19/01:16am 20.8 22.2 20.3 97 0.3 ESE 13 20 7 11 1012.8 - 21.0
19/01:00am 20.7 20.3 20.2 97 0.3 SE 22 28 12 15 1012.7 - 21.0
19/12:30am 20.9 21.2 20.4 97 0.3 SSE 19 28 10 15 1014.0 - 21.0
19/12:00am 20.9 20.3 20.4 97 0.3 SE 24 35 13 19 1014.3 1013.0 20.8
 
Date/Time
EST
Temp
°C
App
Temp
°C
Dew
Point
Rel
Hum
%
Delta-T
°C
Wind Press
QNH
hPa
Press
MSL
hPa
Rain
since 9 am
mm
Dir
 
Spd
km/h
Gust
km/h
Spd
kts
Gust
kts
18/11:46pm 20.9 19.5 20.4 97 0.3 SSE 28 37 15 20 1014.8 - 20.8
18/11:30pm 21.1 20.6 20.8 98 0.2 SE 24 35 13 19 1015.3 - 20.6
18/11:00pm 22.2 23.1 21.9 98 0.2 ESE 20 26 11 14 1015.4 - 20.2
18/10:48pm 22.6 24.3 22.3 98 0.2 SE 17 20 9 11 1015.9 - 19.6
18/10:41pm 22.7 24.8 22.4 98 0.2 SE 15 19 8 10 1016.1 - 19.0
18/10:30pm 22.6 25.0 22.3 98 0.2 SSE 13 17 7 9 1016.2 - 18.2
18/10:05pm 22.8 25.3 22.5 98 0.2 S 13 17 7 9 1016.5 - 15.6
18/10:00pm 22.7 25.2 22.4 98 0.2 S 13 17 7 9 1016.4 - 15.0
18/09:52pm 22.9 24.7 22.6 98 0.2 S 17 22 9 12 1016.5 - 13.8
18/09:30pm 23.8 26.1 23.5 98 0.2 SSE 17 22 9 12 1015.9 - 11.8
18/09:24pm 23.6 25.4 23.3 98 0.2 SE 19 22 10 12 1015.7 - 11.6
18/09:20pm 23.5 25.3 23.2 98 0.2 SE 19 24 10 13 1015.6 - 11.4
18/09:00pm 23.4 23.3 22.9 97 0.3 SW 28 35 15 19 1015.0 1013.7 10.4
18/08:48pm 25.0 28.4 24.1 95 0.6 W 13 19 7 10 1015.3 - 2.0
18/08:30pm 25.2 26.1 23.3 89 1.3 WSW 24 30 13 16 1014.6 - 0.6
18/08:22pm 25.4 25.9 23.3 88 1.4 WSW 26 35 14 19 1014.0 - 0.4
18/08:00pm 26.3 24.1 22.2 78 2.8 SSW 37 52 20 28 1012.1 - 0.0
18/07:30pm 28.1 22.4 20.9 65 4.8 SW 52 70 28 38 1010.4 - 0.0
18/07:29pm 28.2 22.0 20.7 63 5.0 SW 54 70 29 38 1010.2 - 0.0
18/07:16pm 33.2 30.1 17.4 39 10.2 WSW 30 56 16 30 1009.6 - 0.0
18/07:00pm 34.6 34.2 12.9 27 13.2 NW 7 11 4 6 1008.3 - 0.0
18/06:30pm 34.9 34.4 12.5 25 13.5 NW 7 11 4 6 1007.7 - 0.0
18/06:00pm 35.4 34.6 13.0 26 13.7 NW 9 13 5 7 1007.2 1006.0 0.0
18/05:30pm 36.0 34.8 12.9 25 14.1 WNW 11 17 6 9 1006.6 - 0.0
18/05:00pm 36.5 34.2 10.6 21 15.3 NW 13 19 7 10 1006.4 - 0.0
18/04:30pm 37.6 33.8 7.5 16 17.1 NW 17 26 9 14 1006.2 - 0.0
18/04:00pm 38.3 35.1 11.4 20 16.2 NW 19 24 10 13 1005.9 - 0.0
18/03:30pm 38.4 35.5 12.9 22 15.7 NNW 20 32 11 17 1006.0 - 0.0
18/03:00pm 37.9 35.3 13.2 23 15.3 NW 19 28 10 15 1006.3 1005.1 0.0
18/02:30pm 37.6 35.3 14.2 25 14.6 NNW 19 28 10 15 1006.8 - 0.0
18/02:00pm 37.4 34.7 13.4 24 14.8 NW 20 32 11 17 1007.3 - 0.0
18/01:30pm 37.9 35.5 12.5 22 15.5 NNW 17 28 9 15 1007.9 - 0.0
18/01:00pm 37.3 34.3 12.7 23 15.0 N 20 32 11 17 1008.5 - 0.0
18/12:30pm 37.5 33.8 11.5 21 15.6 N 22 35 12 19 1008.9 - 0.0
18/12:00pm 36.1 31.9 9.6 20 15.4 N 22 32 12 17 1009.3 1008.0 0.0
18/11:30am 36.0 31.7 9.5 20 15.4 NNW 22 35 12 19 1009.8 - 0.0
18/11:00am 34.6 32.6 14.0 29 12.7 N 17 22 9 12 1010.3 - 0.0
18/10:30am 33.1 32.6 16.0 35 10.8 N 13 19 7 10 1010.6 - 0.0
18/10:00am 31.5 29.8 16.3 40 9.6 N 20 26 11 14 1010.8 - 0.0
18/09:30am 31.1 29.3 15.5 39 9.7 N 19 26 10 14 1011.0 - 0.0
18/09:00am 30.2 30.0 18.6 49 7.5 N 17 22 9 12 1011.1 1009.9 0.0
18/08:30am 30.2 30.0 17.6 46 8.1 N 15 24 8 13 1011.3 - 0.0
18/08:00am 28.2 28.5 18.0 54 6.5 N 13 17 7 9 1011.5 - 0.0
18/07:30am 26.6 26.1 17.7 58 5.6 NNE 17 22 9 12 1011.4 - 0.0
18/07:00am 26.8 26.2 18.4 60 5.4 NE 19 24 10 13 1011.0 - 0.0
18/06:30am 24.9 25.6 17.9 65 4.4 NE 11 15 6 8 1010.9 - 0.0
18/06:00am 24.4 25.0 17.6 66 4.3 NE 11 17 6 9 1010.6 1009.3 0.0
18/05:30am 23.9 24.3 17.2 66 4.2 ENE 11 15 6 8 1010.2 - 0.0
18/05:00am 23.3 24.0 17.1 68 3.9 NE 9 13 5 7 1009.4 - 0.0
18/04:30am 23.6 23.6 17.3 67 3.9 NE 13 15 7 8 1009.3 - 0.0
18/04:00am 23.4 24.4 17.8 71 3.5 E 9 11 5 6 1009.4 - 0.0
18/03:30am 23.8 24.9 17.1 66 4.2 ENE 7 7 4 4 1009.2 - 0.0
18/03:00am 24.3 25.4 17.1 64 4.5 SE 7 50 4 27 1009.2 1007.9 0.0
18/02:30am 24.5 23.9 16.7 61 4.8 E 15 17 8 9 1008.6 - 0.0
18/02:00am 24.9 25.5 16.9 61 5.0 SE 9 13 5 7 1008.4 - 0.0
18/01:30am 24.4 26.1 18.1 68 4.0 E 6 7 3 4 1007.8 - 0.0
18/01:00am 24.3 25.2 18.5 70 3.7 E 11 13 6 7 1007.6 - 0.0
18/12:30am 25.4 26.3 17.6 62 4.9 NE 9 11 5 6 1007.9 - 0.0
18/12:00am 26.9 27.3 16.2 52 6.7 N 9 11 5 6 1008.0 1006.8 0.0
 
Date/Time
EST
Temp
°C
App
Temp
°C
Dew
Point
Rel
Hum
%
Delta-T
°C
Wind Press
QNH
hPa
Press
MSL
hPa
Rain
since 9 am
mm
Dir
 
Spd
km/h
Gust
km/h
Spd
kts
Gust
kts
17/11:30pm 28.3 28.8 15.6 46 7.8 NW 7 9 4 5 1008.5 - 0.0
17/11:00pm 28.0 28.7 15.6 46 7.7 NE 6 7 3 4 1008.3 - 0.0
17/10:30pm 27.1 28.3 17.3 55 6.2 ESE 7 11 4 6 1008.4 - 0.0
17/10:00pm 29.5 28.9 15.6 43 8.6 NNE 13 17 7 9 1008.0 - 0.0
17/09:30pm 29.9 29.9 16.3 43 8.5 N 11 13 6 7 1007.5 - 0.0
17/09:00pm 29.6 30.3 17.1 47 8.0 NNE 9 11 5 6 1007.2 1006.0 0.0
17/08:30pm 30.7 31.5 18.1 47 8.1 N 11 13 6 7 1006.7 - 0.0
17/08:00pm 31.0 31.6 17.7 45 8.6 NE 11 13 6 7 1006.7 - 0.0
17/07:30pm 33.5 33.6 16.4 36 10.9 NNW 11 15 6 8 1006.2 - 0.0
17/07:00pm 33.5 33.7 16.8 36 10.7 NNW 11 13 6 7 1005.9 - 0.0
17/06:30pm 34.0 34.8 17.2 36 10.8 NW 9 15 5 8 1005.9 - 0.0
17/06:00pm 34.8 35.1 17.1 35 11.5 NW 11 15 6 8 1005.7 1004.4 0.0
17/05:30pm 35.7 34.8 15.9 30 12.6 NW 15 20 8 11 1005.7 - 0.0
17/05:00pm 36.4 35.9 16.0 29 13.0 NW 13 22 7 12 1005.5 - 0.0
17/04:30pm 37.4 36.5 15.8 27 13.8 NW 15 22 8 12 1005.0 - 0.0
17/04:00pm 37.7 36.9 16.1 28 13.9 NW 15 20 8 11 1005.0 - 0.0
17/03:30pm 37.1 36.1 15.5 27 13.7 NNW 15 22 8 12 1005.2 - 0.0
17/03:00pm 36.7 34.8 15.8 29 13.4 NNW 20 32 11 17 1005.7 1004.4 0.0
17/02:30pm 37.0 35.6 16.5 29 13.2 NNW 19 30 10 16 1006.2 - 0.0

Other Formats:

Comma delimited format used in spreadsheet applications
http://www.bom.gov.au/fwo/IDQ60801/IDQ60801.94363.axf

JavaScript Object Notation format (JSON) in row-major order
http://www.bom.gov.au/fwo/IDQ60801/IDQ60801.94363.json